Time;durP1;ratioP1;P1;durP2;ratioP2;P2;SDS_P1;SDS_P2;PMS_P1;PMS_P2;Temp;Humidity;BMP_temperature;BMP_pressure;BME280_temperature;BME280_humidity;BME280_pressure;Samples;Min_cycle;Max_cycle;Signal;HPM_P1;HPM_P2
2023/03/27 00:01:41;;;;;;;;;;;;;;;16.02;45.67;99397.06;4971662;28;118346;-64
2023/03/27 00:04:07;;;;;;;;;;;;;;;15.98;45.62;99399.66;4972967;28;98459;-64
2023/03/27 00:06:33;;;;;;;;;;;;;;;15.92;45.72;99404.47;4975094;28;98813;-64
2023/03/27 00:09:01;;;;;;;;;;;;;;;15.89;45.68;99421.44;4970249;28;131780;-68
2023/03/27 00:11:27;;;;;;;;;;;;;;;15.86;45.67;99419.38;4971531;28;97787;-68
2023/03/27 00:13:53;;;;;;;;;;;;;;;15.83;45.66;99419.22;4968415;28;127914;-64
2023/03/27 00:16:23;;;;;;;;;;;;;;;15.79;45.84;99423.72;4971140;28;129223;-64
2023/03/27 00:18:50;;;;;;;;;;;;;;;15.77;45.85;99432.22;4969581;27;97991;-68
2023/03/27 00:21:16;;;;;;;;;;;;;;;15.73;45.72;99436.69;4970215;28;98114;-68
2023/03/27 00:23:42;;;;;;;;;;;;;;;15.69;45.69;99435.75;4967395;28;98510;-64
2023/03/27 00:26:07;;;;;;;;;;;;;;;15.66;45.75;99448.06;4976060;27;98343;-67
2023/03/27 00:28:34;;;;;;;;;;;;;;;15.63;45.72;99451.38;4975663;27;126950;-68
2023/03/27 00:31:00;;;;;;;;;;;;;;;15.59;45.73;99453.16;4959414;28;98012;-67
2023/03/27 00:33:26;;;;;;;;;;;;;;;15.58;45.78;99448.06;4959576;28;98646;-67
2023/03/27 00:35:52;;;;;;;;;;;;;;;15.55;45.70;99463.09;4956664;28;118455;-64
2023/03/27 00:38:19;;;;;;;;;;;;;;;15.53;45.63;99456.41;4973717;28;98287;-67
2023/03/27 00:40:45;;;;;;;;;;;;;;;15.51;45.80;99464.84;4960958;28;98011;-68
2023/03/27 00:43:26;;;;;;;;;;;;;;;15.49;45.88;99475.25;4976427;28;102856;-68
2023/03/27 00:45:55;;;;;;;;;;;;;;;15.46;45.66;99471.25;4972479;28;98401;-64
2023/03/27 00:48:21;;;;;;;;;;;;;;;15.44;45.72;99462.66;4974874;27;124994;-64
2023/03/27 00:50:47;;;;;;;;;;;;;;;15.43;45.60;99480.03;4962137;28;113885;-68
2023/03/27 00:53:15;;;;;;;;;;;;;;;15.42;45.67;99470.31;4961986;28;127594;-67
2023/03/27 00:55:42;;;;;;;;;;;;;;;15.41;45.67;99473.38;4947629;28;99435;-67
2023/03/27 00:58:16;;;;;;;;;;;;;;;15.39;45.85;99481.81;4945197;28;112987;-68
2023/03/27 01:00:42;;;;;;;;;;;;;;;15.37;45.63;99477.84;4974475;28;103086;-64
2023/03/27 01:03:08;;;;;;;;;;;;;;;15.36;45.80;99476.22;4976779;28;98395;-64
2023/03/27 01:05:34;;;;;;;;;;;;;;;15.35;45.66;99480.88;4974488;28;128065;-64
2023/03/27 01:08:00;;;;;;;;;;;;;;;15.35;45.69;99482.78;4956777;28;127856;-65
2023/03/27 01:10:33;;;;;;;;;;;;;;;15.33;45.63;99488.56;4956367;28;99629;-67
2023/03/27 01:13:11;;;;;;;;;;;;;;;15.33;45.65;99485.84;4943281;28;123431;-64
2023/03/27 01:15:45;;;;;;;;;;;;;;;15.35;45.83;99494.44;4958925;28;127027;-64
2023/03/27 01:18:38;;;;;;;;;;;;;;;15.42;45.79;99491.25;4957769;28;126420;-67
2023/03/27 01:21:30;;;;;;;;;;;;;;;15.49;45.63;99491.56;4966069;28;117757;-64
2023/03/27 01:24:27;;;;;;;;;;;;;;;15.55;45.82;99500.31;4947822;28;99207;-64
2023/03/27 01:27:01;;;;;;;;;;;;;;;15.59;45.74;99509.41;4976522;28;99556;-65
2023/03/27 01:29:52;;;;;;;;;;;;;;;15.62;45.51;99509.56;4957724;28;98487;-65
2023/03/27 01:32:25;;;;;;;;;;;;;;;15.65;45.52;99516.31;4976782;28;98170;-67
2023/03/27 01:35:19;;;;;;;;;;;;;;;15.66;45.77;99515.19;4976764;28;98584;-67
2023/03/27 01:37:56;;;;;;;;;;;;;;;15.66;45.82;99517.91;4975471;28;98451;-68
2023/03/27 01:40:28;;;;;;;;;;;;;;;15.66;45.61;99528.75;4957845;28;98174;-67
2023/03/27 01:43:04;;;;;;;;;;;;;;;15.66;45.71;99536.91;4962384;28;104618;-67
2023/03/27 01:45:39;;;;;;;;;;;;;;;15.64;45.76;99537.22;4961272;27;98777;-64
2023/03/27 01:48:30;;;;;;;;;;;;;;;15.64;45.78;99541.81;4975541;28;124165;-64
2023/03/27 01:50:58;;;;;;;;;;;;;;;15.61;45.63;99545.22;4965307;28;98819;-67
2023/03/27 01:53:32;;;;;;;;;;;;;;;15.60;45.64;99551.75;4955754;28;117224;-68
2023/03/27 01:56:06;;;;;;;;;;;;;;;15.58;45.73;99556.72;4977138;28;107824;-68
2023/03/27 01:58:36;;;;;;;;;;;;;;;15.56;45.95;99559.75;4959455;28;98796;-68
2023/03/27 02:01:02;;;;;;;;;;;;;;;15.56;45.57;99558.94;4943163;28;107389;-68
2023/03/27 02:03:34;;;;;;;;;;;;;;;15.54;45.74;99566.63;4976229;28;97869;-68
2023/03/27 02:06:03;;;;;;;;;;;;;;;15.52;45.76;99572.34;4960951;28;124847;-68
2023/03/27 02:08:36;;;;;;;;;;;;;;;15.52;45.70;99574.28;4944755;28;120834;-65
2023/03/27 02:11:03;;;;;;;;;;;;;;;15.50;45.86;99579.25;4974214;28;97929;-64
2023/03/27 02:13:44;;;;;;;;;;;;;;;15.49;45.85;99583.88;4957104;28;97805;-64
2023/03/27 02:16:12;;;;;;;;;;;;;;;15.47;45.78;99586.09;4954393;28;117333;-64
2023/03/27 02:18:40;;;;;;;;;;;;;;;15.46;45.78;99596.19;4938548;28;127005;-64
2023/03/27 02:21:06;;;;;;;;;;;;;;;15.45;45.60;99596.50;4941748;28;98061;-64
2023/03/27 02:23:32;;;;;;;;;;;;;;;15.43;45.68;99593.31;4969936;28;116744;-68
2023/03/27 02:25:58;;;;;;;;;;;;;;;15.41;45.60;99601.78;4974178;28;127458;-65
2023/03/27 02:28:40;;;;;;;;;;;;;;;15.40;45.76;99608.31;4973883;28;98591;-66
2023/03/27 02:31:50;;;;;;;;;;;;;;;15.39;45.84;99612.16;4946067;28;112346;-64
2023/03/27 02:34:27;;;;;;;;;;;;;;;15.36;45.71;99618.22;4934471;28;97983;-68
2023/03/27 02:37:24;;;;;;;;;;;;;;;15.35;45.68;99621.25;4952745;28;99093;-67
2023/03/27 02:39:59;;;;;;;;;;;;;;;15.33;45.74;99631.66;4932239;28;98471;-64
2023/03/27 02:42:53;;;;;;;;;;;;;;;15.32;45.78;99638.19;4958513;28;98033;-65
2023/03/27 02:45:28;;;;;;;;;;;;;;;15.31;45.67;99647.44;4960717;28;98253;-67
2023/03/27 02:47:57;;;;;;;;;;;;;;;15.29;45.78;99655.91;4960046;27;98638;-68
2023/03/27 02:50:27;;;;;;;;;;;;;;;15.29;45.69;99660.53;4969952;28;128074;-65
2023/03/27 02:52:55;;;;;;;;;;;;;;;15.26;45.79;99659.25;4956288;28;127525;-65
2023/03/27 02:55:25;;;;;;;;;;;;;;;15.26;45.67;99666.63;4961136;28;97879;-68
2023/03/27 02:57:55;;;;;;;;;;;;;;;15.23;45.60;99668.03;4937575;28;109397;-65
2023/03/27 03:00:24;;;;;;;;;;;;;;;15.23;45.68;99681.59;4943559;28;98426;-65
2023/03/27 03:02:59;;;;;;;;;;;;;;;15.22;45.60;99682.72;4943323;28;98292;-65
2023/03/27 03:05:25;;;;;;;;;;;;;;;15.20;45.91;99684.94;4941365;28;109196;-68
2023/03/27 03:07:53;;;;;;;;;;;;;;;15.17;45.79;99691.84;4974852;28;98425;-69
2023/03/27 03:10:20;;;;;;;;;;;;;;;15.16;45.54;99695.63;4974133;28;98447;-68
2023/03/27 03:12:45;;;;;;;;;;;;;;;15.15;45.60;99712.25;4942676;28;98695;-64
2023/03/27 03:15:11;;;;;;;;;;;;;;;15.12;45.75;99704.72;4969982;28;116891;-68
2023/03/27 03:17:37;;;;;;;;;;;;;;;15.10;45.58;99710.50;4967668;28;126086;-68
2023/03/27 03:20:04;;;;;;;;;;;;;;;15.07;45.80;99715.75;4970519;28;98480;-64
2023/03/27 03:22:30;;;;;;;;;;;;;;;15.05;45.69;99717.97;4973227;28;98591;-64
2023/03/27 03:24:56;;;;;;;;;;;;;;;15.03;45.41;99731.84;4971926;28;117805;-65
2023/03/27 03:27:22;;;;;;;;;;;;;;;15.02;45.54;99734.91;4958980;28;98460;-68
2023/03/27 03:29:48;;;;;;;;;;;;;;;14.99;45.59;99739.03;4972780;27;99802;-68
2023/03/27 03:32:14;;;;;;;;;;;;;;;14.97;45.81;99739.34;4974777;28;127608;-65
2023/03/27 03:34:45;;;;;;;;;;;;;;;14.95;45.79;99754.34;4975031;28;100001;-65
2023/03/27 03:37:11;;;;;;;;;;;;;;;14.94;45.92;99758.97;4958341;28;98448;-68
2023/03/27 03:39:37;;;;;;;;;;;;;;;14.94;45.64;99755.47;4958857;28;121748;-65
2023/03/27 03:42:03;;;;;;;;;;;;;;;14.92;45.71;99763.09;4957301;28;127694;-65
2023/03/27 03:44:29;;;;;;;;;;;;;;;14.91;45.79;99772.34;4976065;27;98961;-69
2023/03/27 03:46:55;;;;;;;;;;;;;;;14.89;45.62;99775.38;4973212;28;128208;-68
2023/03/27 03:49:21;;;;;;;;;;;;;;;14.91;45.53;99785.94;4955251;28;128075;-68
2023/03/27 03:51:47;;;;;;;;;;;;;;;14.89;45.68;99793.56;4960254;28;127517;-65
2023/03/27 03:54:13;;;;;;;;;;;;;;;14.88;45.69;99803.63;4958695;28;98109;-69
2023/03/27 03:56:42;;;;;;;;;;;;;;;14.86;45.97;99800.44;4973750;28;128128;-65
2023/03/27 03:59:08;;;;;;;;;;;;;;;14.86;45.75;99808.56;4971427;28;98101;-68
2023/03/27 04:01:34;;;;;;;;;;;;;;;14.86;45.62;99811.28;4972578;28;99842;-65
2023/03/27 04:04:01;;;;;;;;;;;;;;;14.85;45.57;99820.50;4970341;28;98557;-68
2023/03/27 04:06:29;;;;;;;;;;;;;;;14.84;45.79;99828.97;4974822;28;98252;-68
2023/03/27 04:08:55;;;;;;;;;;;;;;;14.84;45.77;99834.41;4972902;28;99420;-68
2023/03/27 04:11:21;;;;;;;;;;;;;;;14.82;45.79;99842.06;4970158;28;129035;-68
2023/03/27 04:13:47;;;;;;;;;;;;;;;14.81;45.63;99848.59;4968487;28;105202;-65
2023/03/27 04:16:13;;;;;;;;;;;;;;;14.79;45.65;99848.91;4937300;28;124824;-65
2023/03/27 04:18:40;;;;;;;;;;;;;;;14.78;45.67;99847.31;4968024;28;98492;-67
2023/03/27 04:21:13;;;;;;;;;;;;;;;14.76;45.71;99848.72;4972394;28;98103;-65
2023/03/27 04:23:41;;;;;;;;;;;;;;;14.74;45.86;99854.47;4973938;28;97912;-68
2023/03/27 04:26:10;;;;;;;;;;;;;;;14.73;45.59;99871.81;4972112;28;99706;-67
2023/03/27 04:28:36;;;;;;;;;;;;;;;14.71;45.70;99868.63;4974478;27;98299;-65
2023/03/27 04:31:06;;;;;;;;;;;;;;;14.69;45.77;99866.22;4972779;28;124161;-65
2023/03/27 04:33:38;;;;;;;;;;;;;;;14.68;45.71;99885.53;4974722;28;97785;-65
2023/03/27 04:36:05;;;;;;;;;;;;;;;14.64;45.70;99896.19;4972363;28;98330;-65
2023/03/27 04:38:32;;;;;;;;;;;;;;;14.61;45.38;99896.78;4973280;28;98779;-68
2023/03/27 04:40:58;;;;;;;;;;;;;;;14.59;45.69;99896.31;4972555;27;126583;-68
2023/03/27 04:43:24;;;;;;;;;;;;;;;14.58;45.58;99911.00;4968768;28;117747;-65
2023/03/27 04:45:52;;;;;;;;;;;;;;;14.56;45.59;99913.19;4937069;28;99989;-68
2023/03/27 04:48:18;;;;;;;;;;;;;;;14.55;45.59;99921.66;4955446;28;98330;-66
2023/03/27 04:50:48;;;;;;;;;;;;;;;14.54;45.39;99926.28;4968834;28;128066;-66
2023/03/27 04:53:17;;;;;;;;;;;;;;;14.52;45.92;99936.63;4956187;28;98213;-68
2023/03/27 04:55:46;;;;;;;;;;;;;;;14.51;45.41;99948.56;4972292;28;99004;-68
2023/03/27 04:58:14;;;;;;;;;;;;;;;14.49;45.54;99959.72;4971520;28;98821;-68
2023/03/27 05:00:40;;;;;;;;;;;;;;;14.48;45.60;99963.50;4968756;28;98172;-68
2023/03/27 05:03:06;;;;;;;;;;;;;;;14.47;45.64;99961.91;4969906;28;97988;-68
2023/03/27 05:05:33;;;;;;;;;;;;;;;14.46;45.46;99971.16;4969394;28;99404;-68
2023/03/27 05:08:02;;;;;;;;;;;;;;;14.46;45.73;99978.47;4965679;28;99415;-68
2023/03/27 05:10:27;;;;;;;;;;;;;;;14.45;45.79;99982.28;4969975;28;126427;-65
2023/03/27 05:12:53;;;;;;;;;;;;;;;14.44;45.42;99992.34;4971740;27;115592;-65
2023/03/27 05:15:20;;;;;;;;;;;;;;;14.43;45.41;99996.16;4972902;28;99473;-65
2023/03/27 05:17:51;;;;;;;;;;;;;;;14.43;45.46;100006.22;4968676;28;99070;-68
2023/03/27 05:20:18;;;;;;;;;;;;;;;14.43;45.47;100009.72;4966248;27;99439;-66
2023/03/27 05:22:44;;;;;;;;;;;;;;;14.42;45.32;100010.84;4976451;28;98009;-68
2023/03/27 05:25:11;;;;;;;;;;;;;;;14.41;45.45;100005.69;4972383;28;128385;-65
2023/03/27 05:27:39;;;;;;;;;;;;;;;14.43;45.32;100011.63;4963379;28;98495;-65
2023/03/27 05:30:05;;;;;;;;;;;;;;;14.43;45.56;100015.16;4974788;27;98558;-67
2023/03/27 05:32:31;;;;;;;;;;;;;;;14.44;45.21;100024.06;4971768;28;118092;-65
2023/03/27 05:34:58;;;;;;;;;;;;;;;14.42;45.66;100015.44;4974514;28;98712;-65
2023/03/27 05:37:24;;;;;;;;;;;;;;;14.41;45.40;100030.09;4972389;28;99097;-65
2023/03/27 05:39:51;;;;;;;;;;;;;;;14.39;45.57;100032.31;4973135;27;98267;-65
2023/03/27 05:42:17;;;;;;;;;;;;;;;14.37;45.47;100031.81;4973094;28;98228;-68
2023/03/27 05:44:43;;;;;;;;;;;;;;;14.37;45.37;100048.88;4959316;28;98810;-65
2023/03/27 05:47:11;;;;;;;;;;;;;;;14.35;45.43;100056.53;4974500;28;121710;-65
2023/03/27 05:49:37;;;;;;;;;;;;;;;14.35;45.59;100051.09;4961611;28;98361;-65
2023/03/27 05:52:03;;;;;;;;;;;;;;;14.32;45.37;100061.75;4977817;28;97789;-65
2023/03/27 05:54:29;;;;;;;;;;;;;;;14.32;45.76;100062.56;4974285;28;124505;-68
2023/03/27 05:56:55;;;;;;;;;;;;;;;14.35;45.53;100072.00;4966279;28;126037;-68
2023/03/27 05:59:21;;;;;;;;;;;;;;;14.38;45.21;100077.63;4974933;28;98313;-68
2023/03/27 06:01:48;;;;;;;;;;;;;;;14.43;45.40;100074.81;4960871;28;98631;-68
2023/03/27 06:04:16;;;;;;;;;;;;;;;14.43;45.13;100079.44;4961153;28;98656;-68
2023/03/27 06:06:45;;;;;;;;;;;;;;;14.47;45.16;100083.13;4960873;28;98458;-65
2023/03/27 06:09:11;;;;;;;;;;;;;;;14.53;45.07;100092.78;4957560;28;126158;-67
2023/03/27 06:11:38;;;;;;;;;;;;;;;14.55;45.07;100087.09;4973279;28;97883;-66
2023/03/27 06:14:04;;;;;;;;;;;;;;;14.62;45.19;100095.59;4971384;28;98599;-65
2023/03/27 06:16:30;;;;;;;;;;;;;;;14.65;45.13;100086.84;4971540;28;98661;-68
2023/03/27 06:18:56;;;;;;;;;;;;;;;14.71;45.08;100101.94;4977018;28;98540;-68
2023/03/27 06:21:22;;;;;;;;;;;;;;;14.75;44.83;100107.56;4977328;28;98364;-65
2023/03/27 06:23:48;;;;;;;;;;;;;;;14.78;44.94;100107.75;4973822;27;98133;-68
2023/03/27 06:26:14;;;;;;;;;;;;;;;14.86;45.09;100111.66;4974100;28;127927;-65
2023/03/27 06:28:40;;;;;;;;;;;;;;;15.00;44.62;100111.63;4975105;27;98773;-67
2023/03/27 06:31:06;;;;;;;;;;;;;;;15.13;44.55;100111.59;4971908;28;117200;-68
2023/03/27 06:33:32;;;;;;;;;;;;;;;15.11;44.86;100123.84;4973560;28;98467;-68
2023/03/27 06:35:59;;;;;;;;;;;;;;;15.10;44.86;100120.34;4972857;28;98301;-67
2023/03/27 06:38:28;;;;;;;;;;;;;;;15.12;44.66;100128.19;4973025;27;99445;-68
2023/03/27 06:40:54;;;;;;;;;;;;;;;15.11;44.93;100129.28;4974847;28;98219;-68
2023/03/27 06:43:21;;;;;;;;;;;;;;;15.12;44.72;100130.88;4975014;28;98940;-65
2023/03/27 06:45:48;;;;;;;;;;;;;;;15.11;45.06;100138.22;4971843;28;98268;-65
2023/03/27 06:48:15;;;;;;;;;;;;;;;15.09;44.82;100140.47;4971734;28;99676;-65
2023/03/27 06:50:41;;;;;;;;;;;;;;;15.20;44.67;100147.25;4972148;28;98256;-68
2023/03/27 06:53:07;;;;;;;;;;;;;;;15.35;44.59;100154.25;4971354;28;99282;-68
2023/03/27 06:55:33;;;;;;;;;;;;;;;15.48;44.34;100155.31;4971911;28;98193;-67
2023/03/27 06:58:00;;;;;;;;;;;;;;;15.62;44.26;100161.50;4971399;28;117811;-66
2023/03/27 07:00:30;;;;;;;;;;;;;;;15.71;44.38;100164.31;4972974;28;98121;-66
2023/03/27 07:02:59;;;;;;;;;;;;;;;15.58;44.61;100168.66;4975315;28;106221;-66
2023/03/27 07:05:26;;;;;;;;;;;;;;;15.56;44.80;100164.66;4974852;28;99241;-65
2023/03/27 07:07:53;;;;;;;;;;;;;;;15.68;44.73;100165.75;4974863;27;98148;-66
2023/03/27 07:10:19;;;;;;;;;;;;;;;15.83;44.26;100167.28;4974688;28;98086;-68
2023/03/27 07:12:46;;;;;;;;;;;;;;;15.92;44.26;100179.03;4970099;28;102098;-65
2023/03/27 07:15:12;;;;;;;;;;;;;;;15.91;44.27;100177.41;4971582;28;100576;-68
2023/03/27 07:17:39;;;;;;;;;;;;;;;16.00;44.27;100177.47;4972823;28;98449;-68
2023/03/27 07:20:06;;;;;;;;;;;;;;;16.06;44.49;100181.66;4972587;28;97890;-68
2023/03/27 07:22:32;;;;;;;;;;;;;;;16.18;44.35;100181.88;4976457;28;99137;-66
2023/03/27 07:24:58;;;;;;;;;;;;;;;16.45;44.01;100180.09;4973597;28;127971;-68
2023/03/27 07:27:24;;;;;;;;;;;;;;;16.56;44.02;100186.09;4974783;28;128196;-68
2023/03/27 07:29:50;;;;;;;;;;;;;;;16.70;43.83;100181.31;4970817;27;116566;-68
2023/03/27 07:32:16;;;;;;;;;;;;;;;16.81;43.85;100190.84;4972649;28;98538;-66
2023/03/27 07:34:42;;;;;;;;;;;;;;;16.95;43.78;100195.38;4971574;27;99070;-68
2023/03/27 07:37:08;;;;;;;;;;;;;;;17.25;43.55;100194.50;4974570;27;97872;-66
2023/03/27 07:39:34;;;;;;;;;;;;;;;17.48;43.34;100200.56;4958414;28;118485;-68
2023/03/27 07:42:00;;;;;;;;;;;;;;;17.49;43.50;100209.53;4965374;28;129061;-66
2023/03/27 07:44:26;;;;;;;;;;;;;;;17.60;43.50;100211.63;4968552;28;105427;-66
2023/03/27 07:46:52;;;;;;;;;;;;;;;17.63;43.38;100213.72;4970923;28;126507;-66
2023/03/27 07:49:18;;;;;;;;;;;;;;;17.48;43.75;100213.41;4970989;28;98040;-66
2023/03/27 07:51:44;;;;;;;;;;;;;;;18.23;42.91;100214.81;4970945;28;127966;-68
2023/03/27 07:54:12;;;;;;;;;;;;;;;17.96;43.29;100224.19;4971579;28;124790;-67
2023/03/27 07:56:38;;;;;;;;;;;;;;;17.61;43.96;100234.28;4972014;28;99363;-66
2023/03/27 07:59:04;;;;;;;;;;;;;;;18.31;43.05;100230.41;4970951;28;99696;-66
2023/03/27 08:01:31;;;;;;;;;;;;;;;18.67;42.73;100223.69;4973158;28;124845;-68
2023/03/27 08:03:56;;;;;;;;;;;;;;;19.59;41.49;100217.56;4968527;28;98383;-69
2023/03/27 08:06:22;;;;;;;;;;;;;;;20.46;40.95;100219.50;4972641;28;127971;-68
2023/03/27 08:08:51;;;;;;;;;;;;;;;21.35;40.39;100216.16;4972493;28;118695;-69
2023/03/27 08:11:18;;;;;;;;;;;;;;;21.91;40.27;100221.69;4973766;28;98556;-69
2023/03/27 08:13:45;;;;;;;;;;;;;;;21.56;40.95;100230.47;4973865;28;98340;-69
2023/03/27 08:16:13;;;;;;;;;;;;;;;20.82;42.24;100216.81;4973026;28;124076;-66
2023/03/27 08:18:39;;;;;;;;;;;;;;;20.28;42.93;100230.66;4968217;28;98044;-68
2023/03/27 08:21:07;;;;;;;;;;;;;;;19.80;43.54;100223.03;4971427;28;99231;-68
2023/03/27 08:23:33;;;;;;;;;;;;;;;19.38;43.78;100239.41;4970116;28;99989;-66
2023/03/27 08:25:59;;;;;;;;;;;;;;;19.06;43.88;100236.22;4971871;28;97981;-66
2023/03/27 08:28:35;;;;;;;;;;;;;;;18.83;44.06;100241.16;4970938;27;98264;-67
2023/03/27 08:31:02;;;;;;;;;;;;;;;18.57;44.10;100243.16;4967700;28;128293;-68
2023/03/27 08:33:28;;;;;;;;;;;;;;;19.91;42.40;100237.09;4969588;28;99051;-68
2023/03/27 08:35:57;;;;;;;;;;;;;;;21.05;41.33;100235.53;4972531;27;98229;-66
2023/03/27 08:38:23;;;;;;;;;;;;;;;22.03;40.71;100235.34;4969889;28;98326;-67
2023/03/27 08:40:53;;;;;;;;;;;;;;;22.95;40.23;100250.75;4969648;28;99173;-67
2023/03/27 08:43:27;;;;;;;;;;;;;;;24.06;39.51;100250.44;4970708;28;124983;-69
2023/03/27 08:45:59;;;;;;;;;;;;;;;24.97;39.12;100243.41;4957018;28;99113;-67
2023/03/27 08:48:38;;;;;;;;;;;;;;;25.25;39.61;100267.09;4961940;28;98029;-70
2023/03/27 08:51:06;;;;;;;;;;;;;;;24.41;40.84;100261.34;4972111;28;99515;-68
2023/03/27 08:53:43;;;;;;;;;;;;;;;23.71;41.82;100262.31;4943685;28;99163;-69
2023/03/27 08:56:16;;;;;;;;;;;;;;;23.22;42.30;100259.22;4946311;28;98197;-69
2023/03/27 08:58:42;;;;;;;;;;;;;;;22.90;42.58;100270.19;4974196;28;98026;-67
2023/03/27 09:01:35;;;;;;;;;;;;;;;23.94;41.17;100262.41;4962896;28;98187;-68
2023/03/27 09:04:08;;;;;;;;;;;;;;;25.28;40.07;100261.63;4963880;28;98399;-67
2023/03/27 09:06:44;;;;;;;;;;;;;;;26.11;39.74;100258.78;4955649;28;125432;-69
2023/03/27 09:09:15;;;;;;;;;;;;;;;27.27;38.91;100259.47;4961629;28;98247;-68
2023/03/27 09:12:03;;;;;;;;;;;;;;;27.60;39.58;100266.78;4976068;28;99504;-67
2023/03/27 09:14:37;;;;;;;;;;;;;;;28.86;38.86;100260.44;4975009;28;98897;-68
2023/03/27 09:17:15;;;;;;;;;;;;;;;28.96;39.24;100266.34;4973395;28;127879;-70
2023/03/27 09:19:43;;;;;;;;;;;;;;;27.93;40.83;100269.72;4946803;28;98263;-68
2023/03/27 09:22:46;;;;;;;;;;;;;;;27.10;41.25;100266.47;4973348;28;99371;-68
2023/03/27 09:25:19;;;;;;;;;;;;;;;26.16;42.25;100274.22;4971494;28;99500;-70
2023/03/27 09:27:46;;;;;;;;;;;;;;;25.41;42.76;100278.75;4961752;27;98109;-69
2023/03/27 09:30:18;;;;;;;;;;;;;;;24.74;43.29;100276.50;4963191;28;97938;-69
2023/03/27 09:32:50;;;;;;;;;;;;;;;24.15;43.74;100281.28;4972883;28;98651;-67
2023/03/27 09:35:19;;;;;;;;;;;;;;;23.68;43.80;100290.53;4962037;28;99106;-69
2023/03/27 09:37:45;;;;;;;;;;;;;;;23.42;43.76;100290.31;4979363;28;98528;-67
2023/03/27 09:40:23;;;;;;;;;;;;;;;23.07;43.80;100293.81;4960971;28;98322;-68
2023/03/27 09:42:51;;;;;;;;;;;;;;;23.05;43.45;100301.63;4975472;28;126676;-69
2023/03/27 09:45:18;;;;;;;;;;;;;;;23.82;42.08;100295.56;4976344;28;99093;-69
2023/03/27 09:48:05;;;;;;;;;;;;;;;25.13;40.85;100292.91;4944515;28;127598;-70
2023/03/27 09:50:40;;;;;;;;;;;;;;;26.48;39.78;100301.44;4975597;28;97897;-68
2023/03/27 09:53:11;;;;;;;;;;;;;;;26.06;40.89;100303.31;4974353;28;98644;-69
2023/03/27 09:55:49;;;;;;;;;;;;;;;25.56;41.73;100301.84;4977160;28;99130;-67
2023/03/27 09:58:27;;;;;;;;;;;;;;;25.04;42.22;100290.38;4960213;28;99744;-69
2023/03/27 10:01:06;;;;;;;;;;;;;;;26.65;40.08;100293.34;4962345;28;97929;-70
2023/03/27 10:03:47;;;;;;;;;;;;;;;25.97;41.09;100291.75;4975792;28;98462;-70
2023/03/27 10:06:15;;;;;;;;;;;;;;;25.24;42.07;100287.56;4975491;28;98383;-67
2023/03/27 10:08:44;;;;;;;;;;;;;;;24.90;42.34;100292.91;4977609;28;97898;-69
2023/03/27 10:11:15;;;;;;;;;;;;;;;24.45;42.85;100288.97;4973304;28;114387;-67
2023/03/27 10:13:46;;;;;;;;;;;;;;;26.20;40.41;100281.38;4958019;28;99267;-67
2023/03/27 10:16:16;;;;;;;;;;;;;;;26.90;39.93;100292.75;4959921;28;99366;-67
2023/03/27 10:18:48;;;;;;;;;;;;;;;27.49;39.86;100296.38;4970948;28;98171;-69
2023/03/27 10:21:23;;;;;;;;;;;;;;;27.14;40.22;100296.91;4962985;28;99574;-69
2023/03/27 10:23:50;;;;;;;;;;;;;;;26.25;41.67;100305.09;4961214;28;99473;-67
2023/03/27 10:26:18;;;;;;;;;;;;;;;25.63;42.22;100304.69;4974879;28;99319;-69
2023/03/27 10:28:50;;;;;;;;;;;;;;;25.04;42.77;100315.19;4974235;27;98364;-67
2023/03/27 10:31:30;;;;;;;;;;;;;;;24.53;43.05;100315.47;4973867;28;97843;-69
2023/03/27 10:33:58;;;;;;;;;;;;;;;23.99;43.22;100314.38;4974602;27;99059;-69
2023/03/27 10:36:25;;;;;;;;;;;;;;;23.84;43.02;100312.50;4941887;28;98376;-67
2023/03/27 10:39:02;;;;;;;;;;;;;;;27.81;38.15;100309.63;4955336;28;97932;-67
2023/03/27 10:41:28;;;;;;;;;;;;;;;26.93;39.95;100314.13;4973792;28;98182;-69
2023/03/27 10:43:55;;;;;;;;;;;;;;;29.86;37.01;100315.00;4955655;28;98997;-70
2023/03/27 10:46:24;;;;;;;;;;;;;;;29.67;38.11;100332.94;4971031;28;98679;-70
2023/03/27 10:49:17;;;;;;;;;;;;;;;28.18;39.93;100322.44;4960829;28;99872;-67
2023/03/27 10:51:58;;;;;;;;;;;;;;;27.13;41.11;100323.78;4963761;28;110173;-69
2023/03/27 10:54:50;;;;;;;;;;;;;;;26.36;41.85;100328.09;4970230;28;98731;-69
2023/03/27 10:57:33;;;;;;;;;;;;;;;25.62;42.46;100337.03;4946326;28;98540;-67
2023/03/27 11:00:09;;;;;;;;;;;;;;;25.70;42.05;100340.66;4972665;28;98070;-69
2023/03/27 11:02:49;;;;;;;;;;;;;;;25.73;41.84;100333.59;4962836;28;98177;-69
2023/03/27 11:05:38;;;;;;;;;;;;;;;25.31;42.24;100337.31;4972191;28;118980;-67
2023/03/27 11:08:22;;;;;;;;;;;;;;;24.70;42.63;100350.03;4956074;28;123368;-69
2023/03/27 11:10:49;;;;;;;;;;;;;;;24.12;43.29;100352.78;4954443;28;98590;-69
2023/03/27 11:13:22;;;;;;;;;;;;;;;23.85;43.12;100351.81;4960636;28;99182;-67
2023/03/27 11:15:58;;;;;;;;;;;;;;;25.07;41.36;100349.50;4943724;28;98132;-69
2023/03/27 11:18:54;;;;;;;;;;;;;;;26.55;39.77;100348.47;4954611;28;100044;-69
2023/03/27 11:21:47;;;;;;;;;;;;;;;28.60;38.05;100355.06;4944427;28;99203;-67
2023/03/27 11:24:28;;;;;;;;;;;;;;;29.78;37.17;100361.44;4971394;28;97814;-68
2023/03/27 11:27:14;;;;;;;;;;;;;;;27.74;40.39;100359.41;4938155;28;99760;-69
2023/03/27 11:30:15;;;;;;;;;;;;;;;26.81;41.26;100356.66;4974747;28;98333;-68
2023/03/27 11:33:17;;;;;;;;;;;;;;;26.10;41.95;100359.38;4956970;28;98335;-67
2023/03/27 11:35:48;;;;;;;;;;;;;;;25.62;42.21;100356.34;4969901;28;114124;-67
2023/03/27 11:38:23;;;;;;;;;;;;;;;25.20;42.42;100362.75;4944592;28;98744;-69
2023/03/27 11:40:50;;;;;;;;;;;;;;;24.63;43.08;100366.41;4959268;28;98694;-69
2023/03/27 11:43:17;;;;;;;;;;;;;;;24.17;43.36;100367.06;4970371;28;97852;-67
2023/03/27 11:45:55;;;;;;;;;;;;;;;25.61;41.12;100359.44;4972769;28;98006;-68
2023/03/27 11:48:42;;;;;;;;;;;;;;;26.56;40.12;100369.41;4971993;28;97984;-69
2023/03/27 11:51:19;;;;;;;;;;;;;;;27.04;39.82;100363.97;4972967;28;98491;-67
2023/03/27 11:53:48;;;;;;;;;;;;;;;28.26;38.79;100363.66;4955835;28;99112;-68
2023/03/27 11:56:35;;;;;;;;;;;;;;;29.38;38.32;100359.13;4957482;28;97911;-67
2023/03/27 11:59:36;;;;;;;;;;;;;;;29.95;37.86;100359.84;4961072;28;98349;-67
2023/03/27 12:02:07;;;;;;;;;;;;;;;30.63;37.81;100350.41;4965451;28;113091;-68
2023/03/27 12:04:54;;;;;;;;;;;;;;;31.52;37.11;100360.91;4959058;28;97985;-68
2023/03/27 12:07:49;;;;;;;;;;;;;;;32.00;37.12;100360.00;4944658;28;97941;-67
2023/03/27 12:10:28;;;;;;;;;;;;;;;32.72;36.70;100357.84;4959701;28;121914;-70
2023/03/27 12:13:43;;;;;;;;;;;;;;;31.82;38.38;100365.72;4954305;28;98611;-67
2023/03/27 12:16:35;;;;;;;;;;;;;;;30.25;40.28;100359.34;4964266;28;99466;-67
2023/03/27 12:19:19;;;;;;;;;;;;;;;30.40;39.94;100367.63;4960017;28;98475;-67
2023/03/27 12:21:57;;;;;;;;;;;;;;;30.51;39.55;100373.91;4970761;28;98652;-70
2023/03/27 12:24:52;;;;;;;;;;;;;;;31.02;38.81;100367.66;4975851;28;99125;-69
2023/03/27 12:27:31;;;;;;;;;;;;;;;31.48;38.47;100374.84;4959012;28;127354;-69
2023/03/27 12:30:14;;;;;;;;;;;;;;;31.70;38.62;100378.19;4950987;28;98604;-68
2023/03/27 12:32:47;;;;;;;;;;;;;;;31.81;38.70;100375.31;4977741;28;98627;-68
2023/03/27 12:35:22;;;;;;;;;;;;;;;31.88;38.67;100369.69;4979594;28;105287;-68
2023/03/27 12:38:06;;;;;;;;;;;;;;;31.91;38.70;100368.06;4961925;28;98160;-68
2023/03/27 12:40:37;;;;;;;;;;;;;;;31.90;39.09;100372.84;4958862;28;97890;-69
2023/03/27 12:43:19;;;;;;;;;;;;;;;31.88;39.14;100357.75;4973319;28;99156;-68
2023/03/27 12:46:22;;;;;;;;;;;;;;;30.55;40.54;100369.13;4975201;28;99040;-68
2023/03/27 12:49:04;;;;;;;;;;;;;;;29.88;41.05;100370.16;4970399;28;98892;-67
2023/03/27 12:51:42;;;;;;;;;;;;;;;29.61;41.10;100370.63;4959666;28;98380;-67
2023/03/27 12:54:13;;;;;;;;;;;;;;;29.55;41.01;100358.28;4971546;28;99218;-69
2023/03/27 12:56:39;;;;;;;;;;;;;;;29.72;40.57;100365.06;4969472;28;117632;-69
2023/03/27 12:59:13;;;;;;;;;;;;;;;29.03;41.30;100367.03;4970818;27;98379;-69
2023/03/27 13:01:42;;;;;;;;;;;;;;;29.34;40.55;100365.47;4943633;28;111903;-69